Track Павлов Дмитрий

Time Latitude Longitude Accuracy (66% radius in meters) Altitude (meters) Speed (km/hour) Bearing (degrees) Battery (%) GPS flag
07:23:17 57.202319 60.121776 4.2880001068115 313 2.4100000858307 309.39999389648 46 1 delete
07:23:16 57.202309 60.121805 4.2880001068115 313 1.8300000429153 303.89999389648 46 1 delete
07:23:11 57.202228 60.121920 4.2880001068115 312 3.2000000476837 342.39999389648 46 1 delete
07:23:08 57.202126 60.121955 4.2880001068115 314 4.2199997901917 14 46 1 delete
07:23:06 57.202054 60.121914 4.2880001068115 314 4.5 18.89999961853 46 1 delete
07:23:05 57.202021 60.121887 3.2160000801086 314 4.9499998092651 22 46 1 delete
07:23:02 57.201932 60.121816 3.2160000801086 318 5.2600002288818 27.60000038147 46 1 delete
07:23:00 57.201830 60.121741 3.2160000801086 319 5.289999961853 29.299999237061 46 1 delete
07:22:57 57.201677 60.121639 4.2880001068115 318 3.6900000572205 22.700000762939 46 1 delete
07:22:55 57.201614 60.121594 5.3600001335144 318 2.25 24.39999961853 46 1 delete
07:22:54 57.201592 60.121577 4.2880001068115 319 2.0599999427795 15.699999809265 46 1 delete
07:22:47 57.201492 60.121570 4.2880001068115 319 1.1100000143051 338.89999389648 46 1 delete
07:22:44 57.201449 60.121580 3.2160000801086 320 1.1299999952316 19 46 1 delete
07:22:41 57.201398 60.121585 9.6480007171631 318 1.3200000524521 349.60000610352 46 1 delete
07:22:34 57.201304 60.121605 4.2880001068115 313 0.81000000238419 344.70001220703 46 1 delete
07:22:33 57.201294 60.121616 5.3600001335144 311 1.5099999904633 338 46 1 delete
07:22:25 57.201219 60.121665 4.2880001068115 311 0.63999998569489 14.60000038147 46 1 delete
07:22:22 57.201196 60.121668 3.2160000801086 313 0.89999997615814 14.10000038147 46 1 delete
07:22:16 57.201126 60.121717 3.2160000801086 314 1.6200000047684 349.29998779297 46 1 delete
07:22:12 57.201076 60.121742 3.2160000801086 315 1.210000038147 351.29998779297 46 1 delete
07:22:07 57.201022 60.121752 3.2160000801086 314 1.3600000143051 350.60000610352 46 1 delete
07:22:01 57.200938 60.121776 3.2160000801086 314 1.0599999427795 348.5 46 1 delete
07:22:00 57.200925 60.121782 4.2880001068115 313 0.81999999284744 349.5 46 1 delete
07:21:54 57.200828 60.121841 4.2880001068115 310 1.5599999427795 353.5 46 1 delete
07:21:50 57.200770 60.121864 4.2880001068115 314 1.0900000333786 359.60000610352 46 1 delete
07:21:47 57.200722 60.121868 5.3600001335144 313 0.52999997138977 358.20001220703 46 1 delete
07:21:41 57.200627 60.121882 5.3600001335144 309 1.289999961853 4.5999999046326 46 1 delete
07:21:39 57.200583 60.121877 5.3600001335144 307 2.039999961853 16.299999237061 46 1 delete
07:21:37 57.200536 60.121852 5.3600001335144 306 2.039999961853 20.5 46 1 delete
07:21:32 57.200441 60.121812 4.2880001068115 302 1.7200000286102 17.89999961853 46 1 delete
07:21:28 57.200369 60.121780 4.2880001068115 302 2.1300001144409 353.70001220703 46 1 delete
07:21:27 57.200348 60.121782 4.2880001068115 302 0.88999998569489 10.5 46 1 delete
07:21:21 57.200253 60.121734 3.2160000801086 305 1.039999961853 46.200000762939 46 1 delete
07:21:18 57.200243 60.121713 3.2160000801086 308 0 0 46 1 delete
07:21:07 57.200221 60.121704 3.2160000801086 304 0 0 46 1 delete
07:21:02 57.200172 60.121660 3.2160000801086 303 3.0099999904633 358.79998779297 46 1 delete
07:20:59 57.200065 60.121666 4.2880001068115 302 5.4699997901917 6.1999998092651 46 1 delete
07:20:57 57.199960 60.121650 3.2160000801086 301 6.2300000190735 1.3999999761581 46 1 delete
07:20:56 57.199916 60.121644 3.2160000801086 303 6.6100001335144 355.29998779297 46 1 delete
07:20:55 57.199870 60.121652 3.2160000801086 304 7.6799998283386 353.5 46 1 delete
07:20:53 57.199731 60.121682 3.2160000801086 305 8.1599998474121 353.79998779297 46 1 delete
07:20:51 57.199590 60.121715 3.2160000801086 307 8.75 355.60000610352 46 1 delete
07:20:49 57.199450 60.121727 5.3600001335144 309 8.6999998092651 7.5999999046326 46 1 delete
07:20:47 57.199299 60.121671 6.4320001602173 309 9.0900001525879 14.39999961853 46 1 delete
07:20:46 57.199209 60.121633 6.4320001602173 310 8.5799999237061 18.5 46 1 delete
07:20:45 57.199114 60.121564 8.576000213623 309 7.4400000572205 26.200000762939 46 1 delete
07:20:44 57.199049 60.121507 8.576000213623 309 7 29.700000762939 46 1 delete
07:20:42 57.198940 60.121399 7.5040001869202 309 7.1799998283386 47.099998474121 46 1 delete
07:20:40 57.198861 60.121206 7.5040001869202 311 5.6399998664856 65.199996948242 46 1 delete
07:20:36 57.198838 60.120862 6.4320001602173 312 1.960000038147 136.19999694824 46 1 delete